Time;durP1;ratioP1;P1;durP2;ratioP2;P2;SDS_P1;SDS_P2;PMS_P1;PMS_P2;Temp;Humidity;BMP_temperature;BMP_pressure;BME280_temperature;BME280_humidity;BME280_pressure;Samples;Min_cycle;Max_cycle;Signal;HPM_P1;HPM_P2
2023/10/16 00:02:12;;;;;;;;;;;;;;;;;;4946221;28;19933;-65
2023/10/16 00:04:43;;;;;;;;;;;;;;;;;;4941534;28;19922;-65
2023/10/16 00:07:09;;;;;;;;;;;;;;;;;;4959093;28;19918;-65
2023/10/16 00:09:39;;;;;;;;;;;;;;;;;;4950314;28;19929;-66
2023/10/16 00:12:04;;;;;;;;;;;;;;;;;;4950161;28;20242;-66
2023/10/16 00:14:31;;;;;;;;;;;;;;;;;;4959238;28;19933;-67
2023/10/16 00:16:59;;;;;;;;;;;;;;;;;;4963901;28;19923;-66
2023/10/16 00:19:24;;;;;;;;;;;;;;;;;;4949834;28;19922;-65
2023/10/16 00:21:52;;;;;;;;;;;;;;;;;;4947434;28;19930;-65
2023/10/16 00:24:17;;;;;;;;;;;;;;;;;;4948619;28;19918;-65
2023/10/16 00:26:49;;;;;;;;;;;;;;;;;;4947722;28;19949;-66
2023/10/16 00:29:17;;;;;;;;;;;;;;;;;;5008454;28;19925;-67
2023/10/16 00:31:42;;;;;;;;;;;;;;;;;;4951466;28;20025;-67
2023/10/16 00:34:19;;;;;;;;;;;;;;;;;;4962405;28;19928;-67
2023/10/16 00:36:44;;;;;;;;;;;;;;;;;;4944533;28;20522;-67
2023/10/16 00:39:13;;;;;;;;;;;;;;;;;;5008615;28;19932;-69
2023/10/16 00:41:41;;;;;;;;;;;;;;;;;;4948757;28;19921;-66
2023/10/16 00:44:09;;;;;;;;;;;;;;;;;;5006680;28;19953;-66
2023/10/16 00:46:38;;;;;;;;;;;;;;;;;;4930749;28;19990;-67
2023/10/16 00:49:04;;;;;;;;;;;;;;;;;;4948979;28;19918;-65
2023/10/16 00:51:30;;;;;;;;;;;;;;;;;;4941497;28;19926;-65
2023/10/16 00:53:56;;;;;;;;;;;;;;;;;;4912102;28;20301;-66
2023/10/16 00:56:27;;;;;;;;;;;;;;;;;;4943440;28;20181;-66
2023/10/16 00:58:53;;;;;;;;;;;;;;;;;;4962823;28;19930;-67
2023/10/16 01:01:18;;;;;;;;;;;;;;;;;;4945023;28;19933;-68
2023/10/16 01:03:47;;;;;;;;;;;;;;;;;;4962069;28;20670;-66
2023/10/16 01:06:36;;;;;;;;;;;;;;;;;;5007760;28;19963;-67
2023/10/16 01:09:01;;;;;;;;;;;;;;;;;;5008568;28;19928;-68
2023/10/16 01:11:27;;;;;;;;;;;;;;;;;;4951075;28;20328;-68
2023/10/16 01:13:54;;;;;;;;;;;;;;;;;;4947411;28;20591;-68
2023/10/16 01:16:19;;;;;;;;;;;;;;;;;;4942789;28;19922;-69
2023/10/16 01:18:45;;;;;;;;;;;;;;;;;;4956858;28;19926;-69
2023/10/16 01:21:13;;;;;;;;;;;;;;;;;;4959136;28;20035;-69
2023/10/16 01:23:39;;;;;;;;;;;;;;;;;;4937252;28;19929;-71
2023/10/16 01:26:05;;;;;;;;;;;;;;;;;;4944283;28;19918;-68
2023/10/16 01:28:33;;;;;;;;;;;;;;;;;;4946811;28;22047;-68
2023/10/16 01:31:00;;;;;;;;;;;;;;;;;;4939604;28;20021;-69
2023/10/16 01:36:17;;;;;;;;;;;;;;;;;;5013517;28;20444;-66
2023/10/16 01:38:42;;;;;;;;;;;;;;;;;;4965906;28;19922;-68
2023/10/16 01:41:15;;;;;;;;;;;;;;;;;;4965913;28;19923;-67
2023/10/16 01:43:43;;;;;;;;;;;;;;;;;;4951217;28;20280;-67
2023/10/16 01:46:08;;;;;;;;;;;;;;;;;;4948474;28;20360;-67
2023/10/16 01:48:33;;;;;;;;;;;;;;;;;;4967295;28;19976;-68
2023/10/16 01:51:00;;;;;;;;;;;;;;;;;;4952335;28;19945;-69
2023/10/16 01:53:32;;;;;;;;;;;;;;;;;;4952470;28;19929;-69
2023/10/16 01:55:58;;;;;;;;;;;;;;;;;;4952661;28;19927;-68
2023/10/16 01:58:23;;;;;;;;;;;;;;;;;;4932111;28;19926;-68
2023/10/16 02:00:48;;;;;;;;;;;;;;;;;;4963762;28;20741;-68
2023/10/16 02:03:17;;;;;;;;;;;;;;;;;;4952700;28;19926;-68
2023/10/16 02:05:42;;;;;;;;;;;;;;;;;;4948958;28;19933;-68
2023/10/16 02:08:09;;;;;;;;;;;;;;;;;;5011044;28;20460;-68
2023/10/16 02:10:36;;;;;;;;;;;;;;;;;;4950924;28;19945;-68
2023/10/16 02:13:01;;;;;;;;;;;;;;;;;;4950866;28;20570;-68
2023/10/16 02:15:27;;;;;;;;;;;;;;;;;;4951291;28;19922;-68
2023/10/16 02:17:53;;;;;;;;;;;;;;;;;;4952137;28;20064;-67
2023/10/16 02:20:20;;;;;;;;;;;;;;;;;;4931394;28;20001;-67
2023/10/16 02:22:45;;;;;;;;;;;;;;;;;;4960911;28;19930;-69
2023/10/16 02:25:11;;;;;;;;;;;;;;;;;;4964338;28;19922;-67
2023/10/16 02:27:37;;;;;;;;;;;;;;;;;;4951814;28;19929;-67
2023/10/16 02:33:13;;;;;;;;;;;;;;;;;;4925664;28;20339;-67
2023/10/16 02:35:42;;;;;;;;;;;;;;;;;;5011166;28;21531;-66
2023/10/16 02:38:07;;;;;;;;;;;;;;;;;;4950567;28;19953;-68
2023/10/16 02:40:33;;;;;;;;;;;;;;;;;;4961389;28;20688;-68
2023/10/16 02:43:02;;;;;;;;;;;;;;;;;;4963935;28;19922;-68
2023/10/16 02:45:28;;;;;;;;;;;;;;;;;;4928992;28;19961;-68
2023/10/16 02:47:53;;;;;;;;;;;;;;;;;;4952885;28;20013;-68
2023/10/16 02:50:19;;;;;;;;;;;;;;;;;;4965225;28;20083;-68
2023/10/16 02:52:45;;;;;;;;;;;;;;;;;;4942865;28;19926;-68
2023/10/16 02:55:11;;;;;;;;;;;;;;;;;;4951242;28;19929;-68
2023/10/16 02:57:36;;;;;;;;;;;;;;;;;;4949297;28;19923;-68
2023/10/16 03:00:07;;;;;;;;;;;;;;;;;;4951955;28;19957;-67
2023/10/16 03:02:34;;;;;;;;;;;;;;;;;;4951666;28;20017;-69
2023/10/16 03:05:21;;;;;;;;;;;;;;;;;;4934384;28;20471;-68
2023/10/16 03:07:47;;;;;;;;;;;;;;;;;;4951335;28;19988;-68
2023/10/16 03:10:16;;;;;;;;;;;;;;;;;;4943521;28;19918;-68
2023/10/16 03:12:42;;;;;;;;;;;;;;;;;;4929008;28;20407;-67
2023/10/16 03:15:15;;;;;;;;;;;;;;;;;;4949179;28;19952;-67
2023/10/16 03:17:41;;;;;;;;;;;;;;;;;;4965203;28;20296;-68
2023/10/16 03:20:19;;;;;;;;;;;;;;;;;;4947331;28;20447;-69
2023/10/16 03:22:48;;;;;;;;;;;;;;;;;;4949015;28;20448;-66
2023/10/16 03:25:59;;;;;;;;;;;;;;;;;;4919684;28;19918;-68
2023/10/16 03:27:59;;;;;;;;;;;;;;;;;;4953906;28;19922;-68
2023/10/16 03:30:26;;;;;;;;;;;;;;;;;;4964680;28;19941;-69
2023/10/16 03:32:53;;;;;;;;;;;;;;;;;;4963632;28;20018;-68
2023/10/16 03:35:25;;;;;;;;;;;;;;;;;;4950953;28;19987;-69
2023/10/16 03:37:52;;;;;;;;;;;;;;;;;;4928365;28;19933;-68
2023/10/16 03:40:19;;;;;;;;;;;;;;;;;;4950340;28;19929;-69
2023/10/16 03:42:45;;;;;;;;;;;;;;;;;;5013251;28;19961;-68
2023/10/16 03:45:13;;;;;;;;;;;;;;;;;;5009049;28;20036;-68
2023/10/16 03:47:38;;;;;;;;;;;;;;;;;;4935998;28;19918;-68
2023/10/16 03:50:04;;;;;;;;;;;;;;;;;;4927775;28;19919;-68
2023/10/16 03:52:29;;;;;;;;;;;;;;;;;;4944555;28;19922;-68
2023/10/16 03:54:55;;;;;;;;;;;;;;;;;;4963787;28;19927;-69
2023/10/16 03:57:20;;;;;;;;;;;;;;;;;;4948805;28;20360;-68
2023/10/16 03:59:47;;;;;;;;;;;;;;;;;;4950237;28;19930;-67
2023/10/16 04:02:19;;;;;;;;;;;;;;;;;;4943923;28;19926;-68
2023/10/16 04:04:45;;;;;;;;;;;;;;;;;;4963694;28;20353;-67
2023/10/16 04:07:13;;;;;;;;;;;;;;;;;;4964427;28;19922;-68
2023/10/16 04:09:48;;;;;;;;;;;;;;;;;;4964497;28;19971;-70
2023/10/16 04:12:17;;;;;;;;;;;;;;;;;;4946260;28;19926;-68
2023/10/16 04:14:50;;;;;;;;;;;;;;;;;;4927988;28;20040;-68
2023/10/16 04:17:15;;;;;;;;;;;;;;;;;;4948464;28;20012;-68
2023/10/16 04:19:53;;;;;;;;;;;;;;;;;;4950315;28;20581;-68
2023/10/16 04:22:18;;;;;;;;;;;;;;;;;;4929685;28;19971;-69
2023/10/16 04:24:47;;;;;;;;;;;;;;;;;;4943142;28;19998;-67
2023/10/16 04:27:33;;;;;;;;;;;;;;;;;;4949969;28;19919;-68
2023/10/16 04:34:53;;;;;;;;;;;;;;;;;;4963654;28;19957;-69
2023/10/16 04:37:36;;;;;;;;;;;;;;;;;;4963978;28;19923;-69
2023/10/16 04:47:42;;;;;;;;;;;;;;;;;;4964375;28;20161;-68
2023/10/16 04:50:09;;;;;;;;;;;;;;;;;;4945937;28;19968;-68
2023/10/16 05:03:35;;;;;;;;;;;;;;;;;;4943928;28;19922;-68
2023/10/16 05:06:49;;;;;;;;;;;;;;;;;;4931644;28;19985;-68
2023/10/16 06:14:09;;;;;;;;;;;;;;;;;;4948890;28;21819;-68
2023/10/16 06:14:16;;;;;;;;;;;;;;;;;;4947882;28;20365;-67
2023/10/16 06:16:42;;;;;;;;;;;;;;;;;;4958289;28;19918;-69
2023/10/16 06:19:14;;;;;;;;;;;;;;;;;;4966479;28;19933;-69
2023/10/16 06:21:40;;;;;;;;;;;;;;;;;;4965067;28;20021;-69
2023/10/16 06:24:17;;;;;;;;;;;;;;;;;;4951617;28;19918;-69
2023/10/16 06:26:46;;;;;;;;;;;;;;;;;;4933584;28;20511;-69
2023/10/16 06:29:13;;;;;;;;;;;;;;;;;;4936943;28;20376;-69
2023/10/16 06:31:49;;;;;;;;;;;;;;;;;;4950905;28;20541;-69
2023/10/16 06:34:15;;;;;;;;;;;;;;;;;;4954550;28;19929;-69
2023/10/16 06:36:41;;;;;;;;;;;;;;;;;;4950387;28;19919;-69
2023/10/16 06:39:19;;;;;;;;;;;;;;;;;;4952700;28;20060;-69
2023/10/16 06:41:45;;;;;;;;;;;;;;;;;;4951774;28;19926;-67
2023/10/16 06:44:16;;;;;;;;;;;;;;;;;;4954060;28;19922;-68
2023/10/16 06:46:41;;;;;;;;;;;;;;;;;;4945840;28;20017;-68
2023/10/16 06:49:11;;;;;;;;;;;;;;;;;;5013848;28;19922;-69
2023/10/16 06:51:43;;;;;;;;;;;;;;;;;;4948299;28;20046;-68
2023/10/16 06:54:09;;;;;;;;;;;;;;;;;;4966350;28;19922;-71
2023/10/16 06:56:36;;;;;;;;;;;;;;;;;;5013198;28;19933;-69
2023/10/16 06:59:02;;;;;;;;;;;;;;;;;;4936536;28;19966;-69
2023/10/16 07:01:28;;;;;;;;;;;;;;;;;;4951748;28;20041;-70
2023/10/16 07:03:56;;;;;;;;;;;;;;;;;;4945282;28;19986;-69
2023/10/16 07:06:24;;;;;;;;;;;;;;;;;;4951041;28;19922;-69
2023/10/16 07:08:51;;;;;;;;;;;;;;;;;;4948675;28;19921;-68
2023/10/16 07:11:19;;;;;;;;;;;;;;;;;;5013049;28;20396;-69
2023/10/16 07:13:47;;;;;;;;;;;;;;;;;;4934620;28;20408;-69
2023/10/16 07:16:15;;;;;;;;;;;;;;;;;;4952521;28;20337;-68
2023/10/16 07:18:43;;;;;;;;;;;;;;;;;;4964790;28;20274;-68
2023/10/16 07:21:09;;;;;;;;;;;;;;;;;;4963367;28;19929;-68
2023/10/16 07:23:35;;;;;;;;;;;;;;;;;;4965133;28;19926;-70
2023/10/16 07:26:00;;;;;;;;;;;;;;;;;;5008661;28;20691;-67
2023/10/16 07:28:26;;;;;;;;;;;;;;;;;;4965763;28;19918;-69
2023/10/16 07:30:51;;;;;;;;;;;;;;;;;;4963535;28;19922;-68
2023/10/16 07:33:20;;;;;;;;;;;;;;;;;;4962749;28;19925;-69
2023/10/16 07:35:45;;;;;;;;;;;;;;;;;;5011836;28;19922;-69
2023/10/16 07:38:11;;;;;;;;;;;;;;;;;;4947981;28;19933;-69
2023/10/16 07:40:38;;;;;;;;;;;;;;;;;;4936051;28;19922;-69
2023/10/16 07:43:04;;;;;;;;;;;;;;;;;;4954399;28;19922;-69
2023/10/16 07:45:34;;;;;;;;;;;;;;;;;;4952925;28;20337;-70
2023/10/16 07:48:18;;;;;;;;;;;;;;;;;;4951430;28;19976;-69
2023/10/16 07:50:43;;;;;;;;;;;;;;;;;;4954262;28;20238;-68
2023/10/16 07:53:09;;;;;;;;;;;;;;;;;;4925872;28;19967;-70
2023/10/16 07:55:50;;;;;;;;;;;;;;;;;;4964785;28;19949;-69
2023/10/16 07:58:16;;;;;;;;;;;;;;;;;;4963358;28;19972;-69
2023/10/16 08:00:58;;;;;;;;;;;;;;;;;;4962244;28;20623;-69
2023/10/16 08:03:26;;;;;;;;;;;;;;;;;;4927864;28;19918;-68
2023/10/16 08:05:51;;;;;;;;;;;;;;;;;;4929987;28;21817;-68
2023/10/16 08:08:25;;;;;;;;;;;;;;;;;;4963217;28;19918;-67
2023/10/16 08:10:51;;;;;;;;;;;;;;;;;;4942511;28;19978;-68
2023/10/16 08:13:18;;;;;;;;;;;;;;;;;;4941264;28;19994;-68
2023/10/16 08:15:51;;;;;;;;;;;;;;;;;;4951025;28;21776;-68
2023/10/16 08:18:18;;;;;;;;;;;;;;;;;;4946911;28;20391;-68
2023/10/16 08:20:49;;;;;;;;;;;;;;;;;;4947084;28;20099;-68
2023/10/16 08:23:15;;;;;;;;;;;;;;;;;;4949096;28;20686;-68
2023/10/16 08:25:40;;;;;;;;;;;;;;;;;;4961592;28;20021;-68
2023/10/16 08:28:20;;;;;;;;;;;;;;;;;;4948269;28;20060;-68
2023/10/16 08:30:49;;;;;;;;;;;;;;;;;;4941860;28;19922;-68
2023/10/16 08:33:16;;;;;;;;;;;;;;;;;;4934000;28;20012;-68
2023/10/16 08:35:42;;;;;;;;;;;;;;;;;;4950131;28;20528;-68
2023/10/16 08:38:25;;;;;;;;;;;;;;;;;;4925947;28;19926;-68
2023/10/16 08:40:57;;;;;;;;;;;;;;;;;;4962299;28;19918;-69
2023/10/16 08:43:31;;;;;;;;;;;;;;;;;;4949703;28;19979;-69
2023/10/16 08:45:56;;;;;;;;;;;;;;;;;;4963526;28;19929;-69
2023/10/16 08:48:22;;;;;;;;;;;;;;;;;;4949014;28;19918;-70
2023/10/16 08:50:57;;;;;;;;;;;;;;;;;;4947512;28;20039;-70
2023/10/16 08:53:35;;;;;;;;;;;;;;;;;;4950087;28;19929;-70
2023/10/16 08:56:03;;;;;;;;;;;;;;;;;;4936357;28;19925;-70
2023/10/16 08:58:28;;;;;;;;;;;;;;;;;;4948806;28;20348;-69
2023/10/16 09:00:55;;;;;;;;;;;;;;;;;;4942252;28;20014;-67
2023/10/16 09:03:23;;;;;;;;;;;;;;;;;;4948925;28;19919;-68
2023/10/16 09:05:48;;;;;;;;;;;;;;;;;;4956937;28;20000;-67
2023/10/16 09:08:17;;;;;;;;;;;;;;;;;;4927154;28;19925;-66
2023/10/16 09:10:44;;;;;;;;;;;;;;;;;;4933392;28;20311;-68
2023/10/16 09:13:17;;;;;;;;;;;;;;;;;;5009091;28;20381;-70
2023/10/16 09:15:45;;;;;;;;;;;;;;;;;;4964818;28;19969;-70
2023/10/16 09:18:11;;;;;;;;;;;;;;;;;;4923998;28;20389;-67
2023/10/16 09:20:41;;;;;;;;;;;;;;;;;;4949679;28;19965;-67
2023/10/16 09:23:13;;;;;;;;;;;;;;;;;;4963755;28;19930;-69
2023/10/16 09:25:39;;;;;;;;;;;;;;;;;;4949054;28;19918;-69
2023/10/16 09:28:04;;;;;;;;;;;;;;;;;;5007622;28;19925;-69
2023/10/16 09:30:32;;;;;;;;;;;;;;;;;;4945720;28;19922;-69
2023/10/16 09:32:58;;;;;;;;;;;;;;;;;;4932962;28;19951;-69
2023/10/16 09:35:30;;;;;;;;;;;;;;;;;;4948368;28;20001;-69
2023/10/16 09:37:57;;;;;;;;;;;;;;;;;;4949707;28;19926;-69
2023/10/16 09:40:38;;;;;;;;;;;;;;;;;;4963014;28;19926;-69
2023/10/16 09:43:08;;;;;;;;;;;;;;;;;;4947889;28;19929;-70
2023/10/16 09:45:34;;;;;;;;;;;;;;;;;;4925681;28;19918;-71
2023/10/16 09:48:09;;;;;;;;;;;;;;;;;;4961866;28;19941;-70
2023/10/16 09:50:36;;;;;;;;;;;;;;;;;;4959113;28;20004;-70
2023/10/16 09:53:01;;;;;;;;;;;;;;;;;;4929801;28;20048;-71
2023/10/16 09:55:27;;;;;;;;;;;;;;;;;;4966803;28;19923;-70
2023/10/16 09:57:54;;;;;;;;;;;;;;;;;;4951509;28;19922;-72
2023/10/16 10:02:53;;;;;;;;;;;;;;;;;;4930986;28;19922;-73
2023/10/16 10:05:22;;;;;;;;;;;;;;;;;;4967861;28;20260;-73
2023/10/16 10:07:47;;;;;;;;;;;;;;;;;;4951589;28;19925;-71
2023/10/16 10:15:45;;;;;;;;;;;;;;;;;;4966129;28;19922;-73
2023/10/16 10:21:11;;;;;;;;;;;;;;;;;;4940958;28;19919;-71
2023/10/16 10:23:41;;;;;;;;;;;;;;;;;;4936697;28;19927;-70
2023/10/16 10:26:11;;;;;;;;;;;;;;;;;;4963352;28;20296;-73
2023/10/16 10:28:38;;;;;;;;;;;;;;;;;;4953594;28;20035;-71
2023/10/16 10:31:05;;;;;;;;;;;;;;;;;;4950551;28;19929;-72
2023/10/16 10:33:35;;;;;;;;;;;;;;;;;;4964751;28;20387;-70
2023/10/16 10:36:00;;;;;;;;;;;;;;;;;;4952697;28;19983;-71
2023/10/16 10:38:29;;;;;;;;;;;;;;;;;;5011059;28;20344;-70
2023/10/16 10:40:55;;;;;;;;;;;;;;;;;;4943751;28;19958;-70
2023/10/16 10:43:23;;;;;;;;;;;;;;;;;;4966369;28;19932;-67
2023/10/16 10:45:48;;;;;;;;;;;;;;;;;;4914280;28;19922;-68
2023/10/16 10:48:15;;;;;;;;;;;;;;;;;;4933697;28;19923;-68
2023/10/16 10:50:40;;;;;;;;;;;;;;;;;;4950201;28;19922;-68
2023/10/16 10:53:09;;;;;;;;;;;;;;;;;;4963846;28;19922;-67
2023/10/16 10:55:36;;;;;;;;;;;;;;;;;;4915715;28;19918;-68
2023/10/16 10:58:11;;;;;;;;;;;;;;;;;;4959980;28;19926;-68
2023/10/16 11:00:43;;;;;;;;;;;;;;;;;;4934363;28;20040;-66
2023/10/16 11:03:09;;;;;;;;;;;;;;;;;;4948162;28;20665;-66
2023/10/16 11:05:35;;;;;;;;;;;;;;;;;;5010162;28;19925;-66
2023/10/16 11:10:41;;;;;;;;;;;;;;;;;;4953161;28;19988;-65
2023/10/16 11:13:06;;;;;;;;;;;;;;;;;;4927909;28;19928;-66
2023/10/16 11:15:34;;;;;;;;;;;;;;;;;;4950884;28;19922;-65
2023/10/16 11:18:05;;;;;;;;;;;;;;;;;;4964320;28;19926;-65
2023/10/16 11:20:36;;;;;;;;;;;;;;;;;;4960341;28;19926;-65
2023/10/16 11:23:12;;;;;;;;;;;;;;;;;;4963428;28;19941;-65
2023/10/16 11:25:44;;;;;;;;;;;;;;;;;;4949602;28;19928;-67
2023/10/16 11:28:09;;;;;;;;;;;;;;;;;;4950645;28;19922;-65
2023/10/16 11:30:43;;;;;;;;;;;;;;;;;;4948612;28;19918;-65
2023/10/16 11:33:09;;;;;;;;;;;;;;;;;;4963832;28;20057;-65
2023/10/16 11:35:34;;;;;;;;;;;;;;;;;;4948956;28;20498;-65
2023/10/16 11:38:04;;;;;;;;;;;;;;;;;;4949049;28;19926;-65
2023/10/16 11:40:42;;;;;;;;;;;;;;;;;;4950101;28;19933;-64
2023/10/16 11:43:11;;;;;;;;;;;;;;;;;;4949921;28;19922;-65
2023/10/16 11:45:37;;;;;;;;;;;;;;;;;;4959834;28;19930;-66
2023/10/16 11:50:50;;;;;;;;;;;;;;;;;;4963877;28;19918;-64
2023/10/16 11:53:15;;;;;;;;;;;;;;;;;;4962554;28;20357;-66
2023/10/16 11:55:45;;;;;;;;;;;;;;;;;;4928557;28;19925;-65
2023/10/16 11:58:11;;;;;;;;;;;;;;;;;;4947463;28;19929;-66
2023/10/16 12:00:42;;;;;;;;;;;;;;;;;;4951418;28;19925;-66
2023/10/16 12:03:14;;;;;;;;;;;;;;;;;;4951313;28;19962;-65
2023/10/16 12:05:41;;;;;;;;;;;;;;;;;;4964937;28;19918;-66
2023/10/16 12:08:10;;;;;;;;;;;;;;;;;;4944175;28;19919;-65
2023/10/16 12:10:35;;;;;;;;;;;;;;;;;;4959693;28;19914;-66
2023/10/16 12:13:00;;;;;;;;;;;;;;;;;;4927441;28;19930;-65
2023/10/16 12:15:26;;;;;;;;;;;;;;;;;;4958775;28;19922;-67
2023/10/16 12:17:53;;;;;;;;;;;;;;;;;;5009571;28;19929;-65
2023/10/16 12:20:18;;;;;;;;;;;;;;;;;;4961880;28;19967;-66
2023/10/16 12:22:44;;;;;;;;;;;;;;;;;;4948563;28;19930;-66
2023/10/16 12:25:09;;;;;;;;;;;;;;;;;;4962163;28;19932;-65
2023/10/16 12:27:36;;;;;;;;;;;;;;;;;;4950959;28;20365;-65
2023/10/16 12:30:05;;;;;;;;;;;;;;;;;;4962749;28;20017;-65
2023/10/16 12:32:30;;;;;;;;;;;;;;;;;;5006491;28;19923;-65
2023/10/16 12:34:57;;;;;;;;;;;;;;;;;;4963030;28;20482;-65
2023/10/16 12:37:25;;;;;;;;;;;;;;;;;;5008621;28;19918;-66
2023/10/16 12:39:52;;;;;;;;;;;;;;;;;;4946232;28;19996;-65
2023/10/16 12:42:18;;;;;;;;;;;;;;;;;;4950436;28;20490;-65
2023/10/16 12:44:44;;;;;;;;;;;;;;;;;;4948072;28;20932;-64
2023/10/16 12:47:12;;;;;;;;;;;;;;;;;;5009513;28;19922;-64
2023/10/16 12:49:37;;;;;;;;;;;;;;;;;;4960994;28;20393;-65
2023/10/16 12:52:05;;;;;;;;;;;;;;;;;;4948633;28;19942;-65
2023/10/16 12:54:31;;;;;;;;;;;;;;;;;;4950275;28;20455;-65
2023/10/16 12:56:59;;;;;;;;;;;;;;;;;;4948967;28;20754;-66
2023/10/16 12:59:27;;;;;;;;;;;;;;;;;;4947032;28;19926;-65
2023/10/16 13:01:52;;;;;;;;;;;;;;;;;;5009840;28;19922;-66
2023/10/16 13:04:20;;;;;;;;;;;;;;;;;;4943361;28;20676;-65
2023/10/16 13:06:48;;;;;;;;;;;;;;;;;;4947643;28;21828;-65
2023/10/16 13:09:17;;;;;;;;;;;;;;;;;;4962418;28;19929;-66
2023/10/16 13:11:46;;;;;;;;;;;;;;;;;;4927123;28;19985;-65
2023/10/16 13:14:14;;;;;;;;;;;;;;;;;;4963674;28;19961;-65
2023/10/16 13:16:41;;;;;;;;;;;;;;;;;;5008738;28;19933;-65
2023/10/16 13:19:09;;;;;;;;;;;;;;;;;;4944160;28;19926;-65
2023/10/16 13:21:38;;;;;;;;;;;;;;;;;;4960126;28;19918;-65
2023/10/16 13:24:09;;;;;;;;;;;;;;;;;;4960966;28;19930;-65
2023/10/16 13:26:38;;;;;;;;;;;;;;;;;;4929996;28;20008;-65
2023/10/16 13:29:07;;;;;;;;;;;;;;;;;;5013123;28;19924;-64
2023/10/16 13:31:33;;;;;;;;;;;;;;;;;;4966927;28;19961;-64
2023/10/16 13:34:02;;;;;;;;;;;;;;;;;;4952702;28;20045;-64
2023/10/16 13:36:28;;;;;;;;;;;;;;;;;;4944994;28;19926;-64
2023/10/16 13:38:56;;;;;;;;;;;;;;;;;;4953377;28;19981;-65
2023/10/16 13:41:21;;;;;;;;;;;;;;;;;;4966699;28;20035;-64
2023/10/16 13:43:46;;;;;;;;;;;;;;;;;;5011862;28;19918;-64
2023/10/16 13:46:15;;;;;;;;;;;;;;;;;;4944723;28;20344;-63
2023/10/16 13:48:45;;;;;;;;;;;;;;;;;;4962904;28;19922;-64
2023/10/16 13:51:11;;;;;;;;;;;;;;;;;;4966036;28;19929;-63
2023/10/16 13:53:36;;;;;;;;;;;;;;;;;;4949956;28;19924;-63
2023/10/16 13:56:05;;;;;;;;;;;;;;;;;;4964574;28;19924;-65
2023/10/16 13:58:32;;;;;;;;;;;;;;;;;;4944276;28;19926;-63
2023/10/16 14:01:01;;;;;;;;;;;;;;;;;;5000368;28;19976;-63
2023/10/16 14:03:32;;;;;;;;;;;;;;;;;;4965981;28;19996;-63
2023/10/16 14:05:57;;;;;;;;;;;;;;;;;;4938143;28;19944;-64
2023/10/16 14:08:36;;;;;;;;;;;;;;;;;;4951402;28;20368;-63
2023/10/16 14:11:04;;;;;;;;;;;;;;;;;;4921955;28;20276;-64
2023/10/16 14:13:32;;;;;;;;;;;;;;;;;;4953237;28;19957;-64
2023/10/16 14:16:10;;;;;;;;;;;;;;;;;;4947434;28;19958;-65
2023/10/16 14:18:38;;;;;;;;;;;;;;;;;;4929072;28;20011;-64
2023/10/16 14:21:08;;;;;;;;;;;;;;;;;;4951489;28;19922;-64
2023/10/16 14:23:34;;;;;;;;;;;;;;;;;;4951415;28;20000;-64
2023/10/16 14:25:59;;;;;;;;;;;;;;;;;;4951307;28;19918;-64
2023/10/16 14:28:29;;;;;;;;;;;;;;;;;;4962762;28;19925;-64
2023/10/16 14:30:54;;;;;;;;;;;;;;;;;;4938788;28;19922;-64
2023/10/16 14:33:23;;;;;;;;;;;;;;;;;;4953415;28;19922;-64
2023/10/16 14:35:49;;;;;;;;;;;;;;;;;;4964649;28;19918;-64
2023/10/16 14:38:16;;;;;;;;;;;;;;;;;;4949871;28;20022;-64
2023/10/16 14:40:42;;;;;;;;;;;;;;;;;;4965086;28;20870;-64
2023/10/16 14:43:08;;;;;;;;;;;;;;;;;;4947607;28;20362;-65
2023/10/16 14:45:35;;;;;;;;;;;;;;;;;;4962886;28;19933;-63
2023/10/16 14:48:03;;;;;;;;;;;;;;;;;;4953451;28;19918;-64
2023/10/16 14:50:34;;;;;;;;;;;;;;;;;;5012380;28;19957;-63
2023/10/16 14:53:11;;;;;;;;;;;;;;;;;;4965116;28;19950;-64
2023/10/16 14:55:39;;;;;;;;;;;;;;;;;;4961886;28;19922;-64
2023/10/16 14:58:05;;;;;;;;;;;;;;;;;;4952651;28;19918;-63
2023/10/16 15:00:41;;;;;;;;;;;;;;;;;;4946048;28;19972;-65
2023/10/16 15:03:10;;;;;;;;;;;;;;;;;;4948874;28;19922;-65
2023/10/16 15:05:36;;;;;;;;;;;;;;;;;;4933977;28;20052;-65
2023/10/16 15:08:04;;;;;;;;;;;;;;;;;;4958475;28;19929;-64
2023/10/16 15:10:32;;;;;;;;;;;;;;;;;;4926675;28;19923;-63
2023/10/16 15:12:58;;;;;;;;;;;;;;;;;;4946584;28;20028;-63
2023/10/16 15:15:23;;;;;;;;;;;;;;;;;;5012556;28;20368;-63
2023/10/16 15:17:48;;;;;;;;;;;;;;;;;;5009243;28;20386;-63
2023/10/16 15:20:17;;;;;;;;;;;;;;;;;;4931827;28;19960;-63
2023/10/16 15:22:43;;;;;;;;;;;;;;;;;;4924560;28;20009;-63
2023/10/16 15:25:11;;;;;;;;;;;;;;;;;;5009460;28;19922;-63
2023/10/16 15:27:39;;;;;;;;;;;;;;;;;;4945316;28;19926;-63
2023/10/16 15:30:06;;;;;;;;;;;;;;;;;;4945790;28;19964;-63
2023/10/16 15:32:31;;;;;;;;;;;;;;;;;;4945910;28;19922;-63
2023/10/16 15:38:16;;;;;;;;;;;;;;;;;;4948790;28;20004;-63
2023/10/16 15:40:45;;;;;;;;;;;;;;;;;;4941370;28;19934;-64
2023/10/16 15:43:15;;;;;;;;;;;;;;;;;;4949972;28;19949;-63
2023/10/16 15:45:42;;;;;;;;;;;;;;;;;;4946404;28;19933;-63
2023/10/16 15:48:07;;;;;;;;;;;;;;;;;;5007797;28;19922;-63
2023/10/16 15:50:40;;;;;;;;;;;;;;;;;;5006882;28;19926;-64
2023/10/16 15:53:06;;;;;;;;;;;;;;;;;;4949393;28;19926;-63
2023/10/16 15:55:31;;;;;;;;;;;;;;;;;;5006445;28;19925;-64
2023/10/16 15:57:59;;;;;;;;;;;;;;;;;;4949080;28;19972;-63
2023/10/16 16:00:28;;;;;;;;;;;;;;;;;;4940662;28;19918;-63
2023/10/16 16:02:53;;;;;;;;;;;;;;;;;;4958876;28;19925;-63
2023/10/16 16:05:19;;;;;;;;;;;;;;;;;;4944125;28;20326;-64
2023/10/16 16:07:45;;;;;;;;;;;;;;;;;;5005562;28;19918;-64
2023/10/16 16:10:10;;;;;;;;;;;;;;;;;;4947817;28;19929;-64
2023/10/16 16:12:36;;;;;;;;;;;;;;;;;;4940374;28;20047;-64
2023/10/16 16:18:23;;;;;;;;;;;;;;;;;;4946464;28;19987;-64
2023/10/16 16:20:51;;;;;;;;;;;;;;;;;;4949886;28;19928;-64
2023/10/16 16:23:16;;;;;;;;;;;;;;;;;;4946983;28;19930;-63
2023/10/16 16:25:42;;;;;;;;;;;;;;;;;;4961901;28;19922;-63
2023/10/16 16:28:12;;;;;;;;;;;;;;;;;;4960041;28;19922;-63
2023/10/16 16:30:37;;;;;;;;;;;;;;;;;;4958732;28;20386;-63
2023/10/16 16:33:06;;;;;;;;;;;;;;;;;;4945902;28;20209;-63
2023/10/16 16:35:35;;;;;;;;;;;;;;;;;;4914775;28;19918;-63
2023/10/16 16:38:00;;;;;;;;;;;;;;;;;;4939711;28;19961;-63
2023/10/16 16:40:25;;;;;;;;;;;;;;;;;;4963018;28;19922;-63
2023/10/16 16:42:54;;;;;;;;;;;;;;;;;;4944740;28;20893;-64
2023/10/16 16:45:22;;;;;;;;;;;;;;;;;;4954318;28;19961;-64
2023/10/16 16:47:47;;;;;;;;;;;;;;;;;;4925077;28;20421;-64
2023/10/16 16:50:13;;;;;;;;;;;;;;;;;;4924426;28;19945;-64
2023/10/16 16:52:38;;;;;;;;;;;;;;;;;;4929103;28;19926;-63
2023/10/16 16:55:06;;;;;;;;;;;;;;;;;;4942999;28;19926;-63
2023/10/16 16:57:32;;;;;;;;;;;;;;;;;;5006708;28;19925;-63
2023/10/16 16:59:57;;;;;;;;;;;;;;;;;;4954695;28;19922;-63
2023/10/16 17:02:23;;;;;;;;;;;;;;;;;;4947687;28;20060;-63
2023/10/16 17:04:49;;;;;;;;;;;;;;;;;;4947945;28;20533;-64
2023/10/16 17:07:14;;;;;;;;;;;;;;;;;;4926912;28;19990;-64
2023/10/16 17:09:39;;;;;;;;;;;;;;;;;;4946332;28;19926;-64
2023/10/16 17:12:08;;;;;;;;;;;;;;;;;;4947022;28;20008;-64
2023/10/16 17:14:36;;;;;;;;;;;;;;;;;;4946960;28;19941;-65
2023/10/16 17:17:01;;;;;;;;;;;;;;;;;;5010934;28;20472;-64
2023/10/16 17:19:27;;;;;;;;;;;;;;;;;;4963830;28;19929;-64
2023/10/16 17:21:52;;;;;;;;;;;;;;;;;;4962806;28;19927;-65
2023/10/16 17:24:19;;;;;;;;;;;;;;;;;;4941495;28;19968;-64
2023/10/16 17:26:45;;;;;;;;;;;;;;;;;;4912419;28;19972;-62
2023/10/16 17:29:13;;;;;;;;;;;;;;;;;;4948109;28;20284;-64
2023/10/16 17:31:41;;;;;;;;;;;;;;;;;;4949838;28;19922;-65
2023/10/16 17:34:07;;;;;;;;;;;;;;;;;;4949166;28;19962;-63
2023/10/16 17:36:33;;;;;;;;;;;;;;;;;;5007996;28;19929;-64
2023/10/16 17:39:02;;;;;;;;;;;;;;;;;;4946830;28;20448;-64
2023/10/16 17:41:27;;;;;;;;;;;;;;;;;;4947542;28;19930;-65
2023/10/16 17:43:55;;;;;;;;;;;;;;;;;;4939472;28;20269;-63
2023/10/16 17:46:20;;;;;;;;;;;;;;;;;;4938031;28;19918;-65
2023/10/16 17:48:51;;;;;;;;;;;;;;;;;;4942539;28;19922;-64
2023/10/16 17:51:20;;;;;;;;;;;;;;;;;;5007188;28;19918;-63
2023/10/16 17:53:45;;;;;;;;;;;;;;;;;;4957812;28;19918;-64
2023/10/16 17:56:12;;;;;;;;;;;;;;;;;;4931039;28;19925;-63
2023/10/16 17:58:40;;;;;;;;;;;;;;;;;;4946154;28;20464;-63
2023/10/16 18:01:12;;;;;;;;;;;;;;;;;;4927921;28;19922;-64
2023/10/16 18:03:38;;;;;;;;;;;;;;;;;;4961060;28;20013;-63
2023/10/16 18:06:03;;;;;;;;;;;;;;;;;;4923791;28;20009;-64
2023/10/16 18:08:28;;;;;;;;;;;;;;;;;;4940861;28;20450;-64
2023/10/16 18:10:54;;;;;;;;;;;;;;;;;;4959369;28;19949;-63
2023/10/16 18:13:19;;;;;;;;;;;;;;;;;;4921840;28;19922;-64
2023/10/16 18:15:47;;;;;;;;;;;;;;;;;;4946789;28;19944;-63
2023/10/16 18:18:15;;;;;;;;;;;;;;;;;;4941633;28;19922;-65
2023/10/16 18:20:40;;;;;;;;;;;;;;;;;;4962153;28;19922;-64
2023/10/16 18:23:09;;;;;;;;;;;;;;;;;;5009597;28;20021;-65
2023/10/16 18:25:34;;;;;;;;;;;;;;;;;;4962244;28;19918;-65
2023/10/16 18:28:03;;;;;;;;;;;;;;;;;;4943396;28;20343;-63
2023/10/16 18:30:29;;;;;;;;;;;;;;;;;;4949585;28;19918;-63
2023/10/16 18:32:59;;;;;;;;;;;;;;;;;;4963941;28;20499;-64
2023/10/16 18:35:27;;;;;;;;;;;;;;;;;;4960387;28;20465;-64
2023/10/16 18:37:53;;;;;;;;;;;;;;;;;;4947810;28;19929;-64
2023/10/16 18:40:24;;;;;;;;;;;;;;;;;;4948668;28;20509;-64
2023/10/16 18:42:50;;;;;;;;;;;;;;;;;;4929689;28;19990;-64
2023/10/16 18:45:16;;;;;;;;;;;;;;;;;;4949145;28;19928;-64
2023/10/16 18:47:44;;;;;;;;;;;;;;;;;;4932210;28;19922;-63